Time;durP1;ratioP1;P1;durP2;ratioP2;P2;SDS_P1;SDS_P2;PMS_P1;PMS_P2;Temp;Humidity;BMP_temperature;BMP_pressure;BME280_temperature;BME280_humidity;BME280_pressure;Samples;Min_cycle;Max_cycle;Signal;HPM_P1;HPM_P2
2021/12/24 00:01:55;;;;;;;0.20;0.20;;;;;;;7.38;100.00;99481.22;5054271;28;20956;-55
2021/12/24 00:04:22;;;;;;;0.30;0.20;;;;;;;7.49;100.00;99459.75;5054979;28;20450;-55
2021/12/24 00:06:50;;;;;;;0.20;0.20;;;;;;;7.45;100.00;99464.28;5054909;28;20457;-55
2021/12/24 00:09:22;;;;;;;0.40;0.40;;;;;;;7.35;100.00;99473.38;5054584;28;20451;-55
2021/12/24 00:11:51;;;;;;;0.20;0.20;;;;;;;7.45;100.00;99468.72;5054337;28;20451;-56
2021/12/24 00:14:17;;;;;;;0.40;0.40;;;;;;;7.43;100.00;99474.03;5054507;28;20490;-57
2021/12/24 00:16:52;;;;;;;0.30;0.20;;;;;;;7.39;100.00;99472.38;5054751;28;20446;-55
2021/12/24 00:19:34;;;;;;;0.23;0.17;;;;;;;7.46;100.00;99462.50;5054467;28;20879;-55
2021/12/24 00:22:44;;;;;;;0.20;0.20;;;;;;;7.42;100.00;99453.81;5054929;28;20447;-55
2021/12/24 00:36:05;;;;;;;0.20;0.10;;;;;;;7.40;100.00;99450.31;5047796;28;20451;-55
2021/12/24 00:38:32;;;;;;;0.30;0.20;;;;;;;7.33;100.00;99452.28;5054402;28;20983;-56
2021/12/24 00:40:58;;;;;;;1.23;1.23;;;;;;;7.36;100.00;99446.03;5052766;28;20459;-55
2021/12/24 00:43:25;;;;;;;0.20;0.20;;;;;;;7.34;100.00;99446.09;5053821;28;20451;-55
2021/12/24 00:45:52;;;;;;;0.20;0.10;;;;;;;7.30;100.00;99441.81;5053911;28;21760;-55
2021/12/24 00:48:19;;;;;;;1.53;0.80;;;;;;;7.35;100.00;99439.88;5054404;28;20546;-55
2021/12/24 00:51:17;;;;;;;0.23;0.20;;;;;;;7.37;100.00;99440.69;5053166;28;20455;-56
2021/12/24 00:56:16;;;;;;;0.20;0.20;;;;;;;7.34;100.00;99432.88;5053715;28;20482;-55
2021/12/24 00:58:43;;;;;;;0.60;0.60;;;;;;;7.32;100.00;99434.69;5054020;28;20486;-55
2021/12/24 01:01:13;;;;;;;0.20;0.20;;;;;;;7.27;100.00;99435.75;5054006;28;20443;-55
2021/12/24 01:03:41;;;;;;;0.40;0.40;;;;;;;7.17;100.00;99421.94;5054004;28;20455;-55
2021/12/24 01:06:07;;;;;;;0.20;0.20;;;;;;;7.17;100.00;99431.63;5053573;28;20967;-55
2021/12/24 01:08:34;;;;;;;0.20;0.20;;;;;;;7.07;100.00;99425.72;5053532;28;20521;-55
2021/12/24 01:11:06;;;;;;;0.30;0.20;;;;;;;7.06;100.00;99424.00;5048882;28;20490;-55
2021/12/24 01:13:32;;;;;;;0.20;0.20;;;;;;;6.97;100.00;99432.19;5052720;28;20512;-55
2021/12/24 01:18:42;;;;;;;0.30;0.20;;;;;;;6.90;100.00;99415.66;5053329;28;20528;-55
2021/12/24 01:23:57;;;;;;;0.20;0.20;;;;;;;6.86;100.00;99421.06;5053451;28;20948;-55
2021/12/24 01:42:46;;;;;;;0.20;0.20;;;;;;;6.90;100.00;99391.00;5049866;28;20458;-56
2021/12/24 01:45:20;;;;;;;0.20;0.10;;;;;;;6.89;100.00;99389.28;5053195;28;20447;-55
2021/12/24 01:47:49;;;;;;;0.30;0.20;;;;;;;6.94;100.00;99384.72;5052654;28;21006;-55
2021/12/24 01:50:17;;;;;;;0.30;0.20;;;;;;;6.96;100.00;99398.75;5052864;28;20443;-55
2021/12/24 01:52:44;;;;;;;0.20;0.20;;;;;;;6.94;100.00;99393.50;5052860;28;20584;-55
2021/12/24 01:55:11;;;;;;;0.20;0.10;;;;;;;6.95;100.00;99394.38;5052935;28;20517;-55
2021/12/24 01:57:41;;;;;;;0.20;0.20;;;;;;;6.96;100.00;99398.75;5052416;28;20487;-55
2021/12/24 02:00:11;;;;;;;0.60;0.60;;;;;;;7.09;100.00;99392.19;5052738;28;20508;-55
2021/12/24 02:02:38;;;;;;;0.30;0.20;;;;;;;7.18;100.00;99399.88;5052706;28;20887;-55
2021/12/24 02:05:06;;;;;;;0.20;0.20;;;;;;;7.16;100.00;99396.41;5053148;28;20443;-55
2021/12/24 02:07:33;;;;;;;0.20;0.20;;;;;;;7.20;100.00;99389.25;5052190;28;20511;-55
2021/12/24 02:09:59;;;;;;;0.30;0.20;;;;;;;7.12;100.00;99386.81;5052713;28;20504;-55
2021/12/24 02:12:27;;;;;;;0.30;0.20;;;;;;;7.28;100.00;99382.84;5052320;28;20495;-55
2021/12/24 02:14:57;;;;;;;0.20;0.10;;;;;;;7.37;100.00;99385.19;5052411;28;20991;-55
2021/12/24 02:17:46;;;;;;;0.70;0.50;;;;;;;7.56;100.00;99377.56;5051944;28;20528;-55
2021/12/24 02:28:40;;;;;;;0.20;0.20;;;;;;;7.69;100.00;99357.75;5051997;28;20528;-55
2021/12/24 02:31:12;;;;;;;0.20;0.20;;;;;;;7.72;100.00;99347.06;5052205;28;20450;-55
2021/12/24 02:33:40;;;;;;;0.20;0.20;;;;;;;7.83;100.00;99341.44;5052146;28;20466;-55
2021/12/24 02:36:08;;;;;;;0.30;0.20;;;;;;;7.82;100.00;99337.06;5051639;28;20475;-55
2021/12/24 02:38:35;;;;;;;0.30;0.20;;;;;;;7.82;100.00;99344.16;5052310;28;20531;-55
2021/12/24 02:41:03;;;;;;;0.30;0.20;;;;;;;7.81;100.00;99339.75;5050027;28;20451;-55
2021/12/24 02:43:30;;;;;;;0.30;0.20;;;;;;;7.79;100.00;99342.44;5052106;28;20458;-55
2021/12/24 02:46:05;;;;;;;0.27;0.17;;;;;;;7.86;100.00;99346.63;5051899;28;20504;-55
2021/12/24 02:53:59;;;;;;;0.43;0.43;;;;;;;7.93;100.00;99345.50;5052121;28;20994;-55
2021/12/24 02:56:30;;;;;;;0.30;0.20;;;;;;;7.87;100.00;99343.06;5051854;28;20465;-55
2021/12/24 02:58:59;;;;;;;0.27;0.20;;;;;;;8.14;100.00;99348.38;5051822;28;20528;-56
2021/12/24 03:01:33;;;;;;;0.30;0.20;;;;;;;8.09;100.00;99350.31;5051964;28;20454;-55
2021/12/24 03:04:01;;;;;;;0.30;0.20;;;;;;;8.09;100.00;99351.16;5052011;28;20485;-55
2021/12/24 03:06:32;;;;;;;0.30;0.20;;;;;;;8.21;100.00;99344.56;5050265;28;20485;-56
2021/12/24 03:08:59;;;;;;;0.30;0.20;;;;;;;8.17;100.00;99348.25;5051849;28;20872;-55
2021/12/24 03:11:26;;;;;;;0.30;0.20;;;;;;;8.27;100.00;99339.94;5051703;28;20458;-55
2021/12/24 03:13:54;;;;;;;0.30;0.30;;;;;;;8.36;100.00;99354.69;5051984;28;20447;-55
2021/12/24 03:16:21;;;;;;;0.20;0.20;;;;;;;8.28;100.00;99343.47;5051819;28;20487;-55
2021/12/24 03:18:49;;;;;;;0.30;0.20;;;;;;;8.21;100.00;99339.28;5048089;28;20475;-55
2021/12/24 03:21:28;;;;;;;0.30;0.20;;;;;;;8.27;100.00;99339.94;5051920;28;20525;-55
2021/12/24 03:26:36;;;;;;;0.30;0.20;;;;;;;8.31;100.00;99333.63;5051406;28;20446;-55
2021/12/24 03:29:05;;;;;;;0.30;0.20;;;;;;;8.25;100.00;99333.84;5045406;28;20588;-55
2021/12/24 03:31:33;;;;;;;0.30;0.20;;;;;;;8.24;100.00;99332.13;5051753;28;20458;-55
2021/12/24 03:34:00;;;;;;;0.30;0.20;;;;;;;8.29;100.00;99324.00;5051429;28;21039;-55
2021/12/24 03:36:27;;;;;;;0.30;0.20;;;;;;;8.28;100.00;99322.28;5053406;28;20536;-55
2021/12/24 03:38:55;;;;;;;0.30;0.10;;;;;;;8.31;100.00;99322.16;5055452;28;20536;-55
2021/12/24 03:41:22;;;;;;;0.30;0.10;;;;;;;8.32;100.00;99327.41;5053224;28;20528;-55
2021/12/24 03:43:49;;;;;;;0.30;0.20;;;;;;;8.39;100.00;99328.09;5055209;28;20512;-56
2021/12/24 03:46:19;;;;;;;1.63;1.53;;;;;;;8.35;100.00;99317.66;5055244;28;20487;-55
2021/12/24 03:48:52;;;;;;;0.47;0.47;;;;;;;8.32;100.00;99324.75;5055348;28;20890;-55
2021/12/24 03:51:35;;;;;;;0.30;0.20;;;;;;;8.51;100.00;99311.78;5055156;28;20454;-56
2021/12/24 03:56:47;;;;;;;0.30;0.20;;;;;;;8.33;100.00;99323.84;5051308;28;20489;-55
2021/12/24 03:59:14;;;;;;;0.30;0.20;;;;;;;8.34;100.00;99311.50;5054070;28;20956;-55
2021/12/24 04:01:41;;;;;;;0.30;0.20;;;;;;;8.33;100.00;99313.25;5055112;28;20521;-54
2021/12/24 04:04:09;;;;;;;0.30;0.20;;;;;;;8.41;100.00;99320.09;5054766;28;20474;-57
2021/12/24 04:06:37;;;;;;;0.30;0.20;;;;;;;8.33;100.00;99312.38;5054039;28;20450;-55
2021/12/24 04:09:06;;;;;;;0.30;0.20;;;;;;;8.38;100.00;99313.13;5053572;28;20466;-55
2021/12/24 04:11:34;;;;;;;0.30;0.20;;;;;;;8.23;100.00;99311.00;5054422;28;20516;-55
2021/12/24 04:14:00;;;;;;;0.30;0.20;;;;;;;8.20;100.00;99309.28;5054622;28;20482;-55
2021/12/24 04:16:28;;;;;;;0.57;0.57;;;;;;;8.32;100.00;99308.00;5054409;28;20975;-55
2021/12/24 04:26:54;;;;;;;0.30;0.20;;;;;;;8.30;100.00;99316.00;5054809;28;20455;-55
2021/12/24 04:29:20;;;;;;;0.30;0.20;;;;;;;8.33;100.00;99313.25;5054562;28;20455;-55
2021/12/24 04:31:55;;;;;;;0.30;0.20;;;;;;;8.42;100.00;99308.59;5053994;28;20454;-55
2021/12/24 04:34:27;;;;;;;0.30;0.20;;;;;;;8.34;100.00;99306.19;5054522;28;20970;-55
2021/12/24 05:03:48;;;;;;;0.30;0.30;;;;;;;8.32;100.00;99313.31;5053873;28;20872;-55
2021/12/24 05:08:54;;;;;;;2.33;2.33;;;;;;;8.36;100.00;99319.38;5053828;28;20478;-55
2021/12/24 05:11:23;;;;;;;0.30;0.20;;;;;;;8.31;100.00;99328.31;5053864;28;21190;-55
2021/12/24 05:13:52;;;;;;;3.33;1.27;;;;;;;8.37;100.00;99319.34;5053579;28;20455;-55
2021/12/24 05:16:25;;;;;;;0.30;0.20;;;;;;;8.38;100.00;99325.50;5053363;28;20490;-56
2021/12/24 05:21:33;;;;;;;0.30;0.20;;;;;;;8.43;100.00;99334.16;5053511;28;20506;-55
2021/12/24 05:21:54;;;;;;;0.30;0.20;;;;;;;8.31;100.00;99323.03;5049311;28;20487;-55
2021/12/24 05:24:24;;;;;;;0.30;0.20;;;;;;;8.31;100.00;99328.31;5053363;28;20459;-55
2021/12/24 05:26:54;;;;;;;0.40;0.40;;;;;;;8.27;100.00;99333.78;5053247;28;20443;-55
2021/12/24 05:29:21;;;;;;;2.73;2.63;;;;;;;8.28;100.00;99331.09;5053634;28;20455;-55
2021/12/24 05:31:50;;;;;;;0.30;0.20;;;;;;;8.25;100.00;99328.56;5050867;28;20451;-55
2021/12/24 05:34:18;;;;;;;0.30;0.20;;;;;;;8.29;100.00;99334.59;5053355;28;20513;-56
2021/12/24 05:36:49;;;;;;;0.30;0.30;;;;;;;8.35;100.00;99330.88;5045999;28;20539;-55
2021/12/24 05:39:17;;;;;;;0.30;0.20;;;;;;;8.25;100.00;99339.13;5053321;28;20451;-55
2021/12/24 05:41:45;;;;;;;0.30;0.20;;;;;;;8.22;100.00;99339.25;5050209;28;20978;-55
2021/12/24 05:44:15;;;;;;;0.30;0.20;;;;;;;8.19;100.00;99351.69;5053361;28;20847;-55
2021/12/24 05:46:45;;;;;;;0.30;0.20;;;;;;;8.13;100.00;99352.78;5051447;28;20874;-55
2021/12/24 05:49:12;;;;;;;0.30;0.20;;;;;;;8.17;100.00;99351.75;5053224;28;20451;-55
2021/12/24 05:51:40;;;;;;;0.30;0.20;;;;;;;8.21;100.00;99345.44;5052768;28;20895;-55
2021/12/24 05:54:06;;;;;;;0.30;0.20;;;;;;;8.22;100.00;99335.72;5046997;28;20443;-55
2021/12/24 05:56:34;;;;;;;0.30;0.20;;;;;;;8.18;100.00;99337.59;5052752;28;20994;-55
2021/12/24 05:59:00;;;;;;;0.30;0.20;;;;;;;8.12;100.00;99343.13;5051767;28;20475;-55
2021/12/24 06:01:27;;;;;;;0.30;0.20;;;;;;;8.16;100.00;99351.81;5052947;28;20584;-55
2021/12/24 06:03:54;;;;;;;0.30;0.30;;;;;;;8.17;100.00;99354.41;5052334;28;20459;-55
2021/12/24 06:06:21;;;;;;;0.30;0.20;;;;;;;8.20;100.00;99349.00;5052429;28;20466;-55
2021/12/24 06:08:48;;;;;;;0.30;0.20;;;;;;;8.21;100.00;99366.63;5052518;28;20506;-55
2021/12/24 06:11:15;;;;;;;0.30;0.20;;;;;;;8.20;100.00;99366.66;5052575;28;20447;-55
2021/12/24 06:13:42;;;;;;;0.30;0.20;;;;;;;8.27;100.00;99365.56;5052804;28;20505;-55
2021/12/24 06:16:09;;;;;;;0.30;0.20;;;;;;;8.23;100.00;99351.56;5052762;28;20486;-55
2021/12/24 06:18:39;;;;;;;0.30;0.20;;;;;;;8.28;100.00;99346.09;5052394;28;21021;-55
2021/12/24 06:21:07;;;;;;;0.53;0.53;;;;;;;8.22;100.00;99347.19;5052184;28;20455;-55
2021/12/24 06:23:37;;;;;;;0.30;0.20;;;;;;;8.19;100.00;99351.69;5052416;28;20462;-55
2021/12/24 06:26:05;;;;;;;0.67;0.67;;;;;;;8.15;100.00;99345.66;5052392;28;20455;-58
2021/12/24 06:28:35;;;;;;;0.30;0.20;;;;;;;8.19;100.00;99352.56;5048978;28;20513;-55
2021/12/24 06:31:02;;;;;;;0.20;0.20;;;;;;;8.17;100.00;99350.91;5052475;28;20501;-55
2021/12/24 06:33:29;;;;;;;1.37;1.13;;;;;;;8.16;100.00;99354.47;5051593;28;20530;-55
2021/12/24 06:35:57;;;;;;;0.30;0.20;;;;;;;8.22;100.00;99347.19;5051533;28;20490;-54
2021/12/24 06:38:24;;;;;;;2.53;2.43;;;;;;;8.21;100.00;99356.03;5051755;28;20475;-55
2021/12/24 06:40:52;;;;;;;0.30;0.20;;;;;;;8.19;100.00;99346.41;5051628;28;21185;-55
2021/12/24 06:43:20;;;;;;;0.30;0.20;;;;;;;8.08;100.00;99351.19;5050702;28;20814;-55
2021/12/24 06:45:49;;;;;;;0.30;0.20;;;;;;;8.08;100.00;99348.53;5051919;28;20455;-55
2021/12/24 06:48:17;;;;;;;0.30;0.20;;;;;;;8.14;100.00;99349.22;5051791;28;20799;-55
2021/12/24 06:50:44;;;;;;;0.30;0.20;;;;;;;8.21;100.00;99337.50;5044751;28;20446;-55
2021/12/24 06:53:11;;;;;;;0.30;0.20;;;;;;;8.16;100.00;99349.16;5051918;28;21017;-55
2021/12/24 06:55:37;;;;;;;0.30;0.20;;;;;;;8.13;100.00;99358.09;5051278;28;21073;-55
2021/12/24 06:58:04;;;;;;;0.30;0.20;;;;;;;8.08;100.00;99364.44;5051791;28;20518;-55
2021/12/24 07:00:32;;;;;;;0.30;0.20;;;;;;;8.14;100.00;99362.47;5051615;28;20454;-55
2021/12/24 07:02:58;;;;;;;0.30;0.10;;;;;;;8.08;100.00;99369.72;5052029;28;20508;-55
2021/12/24 07:05:26;;;;;;;0.30;0.20;;;;;;;8.24;100.00;99368.31;5051191;28;20455;-55
2021/12/24 07:07:53;;;;;;;0.30;0.20;;;;;;;8.17;100.00;99364.13;5043171;28;20506;-55
2021/12/24 07:10:19;;;;;;;0.30;0.20;;;;;;;8.20;100.00;99370.19;5052215;28;20459;-56
2021/12/24 07:12:46;;;;;;;0.30;0.20;;;;;;;8.19;100.00;99362.28;5055927;28;20462;-55
2021/12/24 07:15:13;;;;;;;0.37;0.37;;;;;;;8.14;100.00;99354.53;5055662;28;20482;-55
2021/12/24 07:17:39;;;;;;;0.30;0.20;;;;;;;8.07;100.00;99352.13;5055484;28;20478;-56
2021/12/24 07:20:06;;;;;;;0.30;0.20;;;;;;;8.27;100.00;99344.38;5055937;28;20530;-55
2021/12/24 07:22:33;;;;;;;0.30;0.20;;;;;;;8.16;100.00;99350.03;5054434;28;20481;-55
2021/12/24 07:25:06;;;;;;;0.30;0.20;;;;;;;8.19;100.00;99357.84;5055334;28;20982;-55
2021/12/24 07:27:34;;;;;;;0.30;0.20;;;;;;;8.17;100.00;99362.34;5055042;28;20478;-55
2021/12/24 07:30:02;;;;;;;0.30;0.20;;;;;;;8.21;100.00;99357.81;5053985;28;20455;-55
2021/12/24 07:32:29;;;;;;;0.30;0.20;;;;;;;8.30;100.00;99355.72;5055375;28;20451;-56
2021/12/24 07:34:55;;;;;;;0.60;0.60;;;;;;;8.20;100.00;99358.72;5055448;28;20451;-55
2021/12/24 07:37:22;;;;;;;0.30;0.20;;;;;;;8.31;100.00;99362.75;5055244;28;20987;-55
2021/12/24 07:39:52;;;;;;;0.30;0.20;;;;;;;8.31;100.00;99372.47;5054973;28;21022;-55
2021/12/24 07:42:18;;;;;;;0.30;0.20;;;;;;;8.32;100.00;99368.91;5055280;28;20458;-56
2021/12/24 07:44:45;;;;;;;0.40;0.37;;;;;;;8.32;100.00;99368.91;5055425;28;20503;-55
2021/12/24 07:47:18;;;;;;;0.30;0.20;;;;;;;8.28;100.00;99362.84;5055079;28;20475;-55
2021/12/24 07:49:47;;;;;;;0.30;0.20;;;;;;;8.45;100.00;99367.59;5055483;28;20960;-55
2021/12/24 07:52:15;;;;;;;0.30;0.20;;;;;;;8.43;100.00;99364.13;5053190;28;20450;-55
2021/12/24 07:54:47;;;;;;;0.30;0.20;;;;;;;8.47;100.00;99356.94;5055579;28;20455;-55
2021/12/24 07:57:33;;;;;;;0.40;0.30;;;;;;;8.41;100.00;99359.81;5050365;28;21028;-55
2021/12/24 08:00:00;;;;;;;0.40;0.40;;;;;;;8.47;100.00;99354.28;5054749;28;20982;-55
2021/12/24 08:02:28;;;;;;;0.30;0.30;;;;;;;8.61;100.00;99347.59;5054573;28;20447;-56
2021/12/24 08:04:56;;;;;;;0.30;0.20;;;;;;;8.57;100.00;99351.28;5055104;28;20497;-56
2021/12/24 08:07:23;;;;;;;0.30;0.20;;;;;;;8.51;100.00;99348.00;5054120;28;20822;-55
2021/12/24 08:09:51;;;;;;;0.30;0.20;;;;;;;8.53;100.00;99341.72;5054881;28;20478;-55
2021/12/24 08:12:18;;;;;;;0.30;0.20;;;;;;;8.57;100.00;99345.97;5054420;28;20474;-55
2021/12/24 08:14:45;;;;;;;0.30;0.20;;;;;;;8.54;100.00;99339.94;5054351;28;20447;-55
2021/12/24 08:17:12;;;;;;;0.30;0.20;;;;;;;8.55;100.00;99350.47;5053928;28;20490;-55
2021/12/24 08:19:39;;;;;;;0.30;0.20;;;;;;;8.63;100.00;99352.81;5053889;28;20446;-56
2021/12/24 08:22:06;;;;;;;0.30;0.20;;;;;;;8.53;100.00;99356.75;5053911;28;20455;-55
2021/12/24 08:24:33;;;;;;;0.30;0.20;;;;;;;8.56;100.00;99368.09;5054572;28;20584;-56
2021/12/24 08:27:00;;;;;;;0.30;0.20;;;;;;;8.59;100.00;99364.47;5053863;28;20524;-56
2021/12/24 08:29:26;;;;;;;0.30;0.20;;;;;;;8.56;100.00;99365.44;5054772;28;20443;-55
2021/12/24 08:31:54;;;;;;;0.30;0.20;;;;;;;8.49;100.00;99363.91;5054525;28;20451;-55
2021/12/24 08:34:20;;;;;;;0.30;0.20;;;;;;;8.58;100.00;99368.03;5054788;28;20501;-55
2021/12/24 08:36:50;;;;;;;0.30;0.20;;;;;;;8.69;100.00;99365.00;5054076;28;20518;-56
2021/12/24 08:39:19;;;;;;;0.30;0.30;;;;;;;8.61;100.00;99360.84;5054278;28;20885;-55
2021/12/24 08:41:47;;;;;;;0.47;0.43;;;;;;;8.72;100.00;99351.66;5052599;28;20463;-56
2021/12/24 08:44:13;;;;;;;0.30;0.20;;;;;;;8.75;100.00;99362.13;5047257;28;20864;-55
2021/12/24 08:46:40;;;;;;;0.30;0.20;;;;;;;8.84;100.00;99352.06;5053813;28;20473;-55
2021/12/24 08:49:07;;;;;;;0.30;0.20;;;;;;;8.70;100.00;99356.13;5053669;28;20955;-55
2021/12/24 08:51:33;;;;;;;0.30;0.20;;;;;;;8.75;100.00;99355.03;5053380;28;20509;-56
2021/12/24 08:54:00;;;;;;;0.30;0.20;;;;;;;8.68;100.00;99348.25;5056392;28;20995;-56
2021/12/24 08:56:27;;;;;;;0.30;0.20;;;;;;;8.82;100.00;99353.03;5054217;28;20532;-56
2021/12/24 08:58:54;;;;;;;0.30;0.20;;;;;;;8.75;100.00;99356.81;5053495;28;20478;-56
2021/12/24 09:01:20;;;;;;;0.30;0.20;;;;;;;8.75;100.00;99340.94;5053943;28;20505;-56
2021/12/24 09:03:47;;;;;;;0.90;0.90;;;;;;;8.77;100.00;99347.03;5053643;28;20451;-56
2021/12/24 09:06:14;;;;;;;0.63;0.60;;;;;;;8.87;100.00;99344.00;5054282;28;20447;-55
2021/12/24 09:08:44;;;;;;;0.30;0.20;;;;;;;8.76;100.00;99346.16;5054812;28;20592;-55
2021/12/24 09:11:11;;;;;;;0.30;0.20;;;;;;;8.78;100.00;99330.25;5047702;28;20458;-55
2021/12/24 09:13:38;;;;;;;0.30;0.20;;;;;;;8.87;100.00;99332.53;5056002;28;20455;-56
2021/12/24 09:16:05;;;;;;;0.30;0.20;;;;;;;8.86;100.00;99336.09;5056596;28;20825;-55
2021/12/24 09:18:32;;;;;;;0.30;0.20;;;;;;;8.90;100.00;99330.63;5056661;28;20474;-58
2021/12/24 09:21:02;;;;;;;0.30;0.20;;;;;;;8.95;100.00;99332.25;5054306;28;20511;-56
2021/12/24 09:23:29;;;;;;;0.30;0.20;;;;;;;8.95;100.00;99335.78;5055660;28;20960;-58
2021/12/24 09:26:14;;;;;;;0.30;0.20;;;;;;;8.93;100.00;99342.06;5055462;28;20447;-56
2021/12/24 09:28:40;;;;;;;0.30;0.20;;;;;;;8.89;100.00;99336.84;5055676;28;20470;-56
2021/12/24 09:31:07;;;;;;;0.30;0.20;;;;;;;8.95;100.00;99330.47;5053481;28;20459;-56
2021/12/24 09:33:34;;;;;;;0.30;0.20;;;;;;;8.97;100.00;99328.63;5046444;28;20498;-59
2021/12/24 09:36:01;;;;;;;0.30;0.20;;;;;;;9.04;100.00;99330.09;5048524;28;20455;-60
2021/12/24 09:38:27;;;;;;;0.30;0.20;;;;;;;9.02;100.00;99329.31;5049289;28;20509;-57
2021/12/24 09:40:54;;;;;;;0.30;0.20;;;;;;;9.01;100.00;99342.63;5052075;28;20477;-59
2021/12/24 09:43:24;;;;;;;0.30;0.10;;;;;;;9.05;100.00;99346.91;5050735;28;20849;-59
2021/12/24 09:45:50;;;;;;;0.30;0.20;;;;;;;9.10;100.00;99337.84;5052656;28;20459;-57
2021/12/24 09:48:18;;;;;;;0.30;0.20;;;;;;;9.00;100.00;99341.75;5052127;28;20592;-58
2021/12/24 09:50:45;;;;;;;0.40;0.40;;;;;;;9.15;100.00;99327.91;5052794;28;20459;-57
2021/12/24 09:53:13;;;;;;;0.30;0.20;;;;;;;9.06;100.00;99336.25;5052704;28;20458;-57
2021/12/24 09:55:39;;;;;;;0.30;0.20;;;;;;;9.07;100.00;99334.44;5052994;28;20439;-57
2021/12/24 09:58:06;;;;;;;0.30;0.20;;;;;;;9.12;100.00;99332.47;5038514;28;20510;-57
2021/12/24 10:00:33;;;;;;;0.30;0.20;;;;;;;9.11;100.00;99323.66;5053269;28;20450;-57
2021/12/24 10:03:00;;;;;;;0.30;0.20;;;;;;;9.20;100.00;99333.06;5045960;28;20453;-57
2021/12/24 10:05:39;;;;;;;0.30;0.20;;;;;;;9.06;100.00;99320.34;5053801;28;20501;-57
2021/12/24 10:08:21;;;;;;;0.30;0.20;;;;;;;9.07;100.00;99327.38;5052858;28;20507;-58
2021/12/24 10:10:59;;;;;;;0.30;0.20;;;;;;;9.02;100.00;99324.00;5052073;28;20482;-57
2021/12/24 10:13:43;;;;;;;0.30;0.20;;;;;;;9.00;100.00;99341.75;5051923;28;20454;-58
2021/12/24 10:16:17;;;;;;;0.30;0.20;;;;;;;8.99;100.00;99337.38;5051661;28;20455;-58
2021/12/24 10:18:55;;;;;;;0.40;0.30;;;;;;;8.93;100.00;99337.63;5047947;28;20482;-58
2021/12/24 10:21:29;;;;;;;0.30;0.20;;;;;;;8.89;100.00;99338.63;5052084;28;20476;-57
2021/12/24 10:24:18;;;;;;;0.30;0.20;;;;;;;8.91;100.00;99344.78;5050931;28;20447;-56
2021/12/24 10:26:48;;;;;;;0.30;0.20;;;;;;;8.91;100.00;99331.53;5052722;28;20454;-56
2021/12/24 10:29:29;;;;;;;0.30;0.20;;;;;;;9.00;100.00;99339.09;5052895;28;20495;-56
2021/12/24 10:31:58;;;;;;;0.30;0.10;;;;;;;8.96;100.00;99336.63;5051915;28;20504;-62
2021/12/24 10:34:30;;;;;;;0.30;0.20;;;;;;;8.90;100.00;99329.75;5048238;28;20454;-56
2021/12/24 10:37:13;;;;;;;0.30;0.20;;;;;;;8.96;100.00;99316.28;5051669;28;20544;-58
2021/12/24 10:39:50;;;;;;;0.30;0.20;;;;;;;9.00;100.00;99307.31;5051849;28;21025;-57
2021/12/24 10:42:32;;;;;;;0.30;0.20;;;;;;;8.93;100.00;99303.16;5050998;28;20516;-56
2021/12/24 10:45:01;;;;;;;0.30;0.20;;;;;;;8.96;100.00;99294.22;5052056;28;20455;-60
2021/12/24 10:47:38;;;;;;;0.30;0.20;;;;;;;9.03;100.00;99282.47;5045669;28;20913;-57
2021/12/24 10:55:30;;;;;;;3.73;1.70;;;;;;;9.21;100.00;99273.81;5052068;28;20455;-57
2021/12/24 10:57:59;;;;;;;0.40;0.40;;;;;;;9.21;100.00;99276.47;5051409;28;20585;-58
2021/12/24 11:00:48;;;;;;;0.30;0.20;;;;;;;9.12;100.00;99271.50;5051781;28;20451;-57
2021/12/24 11:03:21;;;;;;;0.30;0.20;;;;;;;9.24;100.00;99259.56;5053332;28;20469;-57
2021/12/24 11:05:55;;;;;;;0.30;0.20;;;;;;;9.27;100.00;99262.09;5052444;28;20500;-56
2021/12/24 11:08:24;;;;;;;0.30;0.20;;;;;;;9.35;100.00;99265.31;5053975;28;20458;-57
2021/12/24 11:10:57;;;;;;;0.30;0.20;;;;;;;9.17;100.00;99265.09;5052852;28;20516;-57
2021/12/24 11:13:39;;;;;;;0.30;0.20;;;;;;;9.15;100.00;99266.94;5053118;28;20453;-56
2021/12/24 11:16:09;;;;;;;0.30;0.20;;;;;;;9.14;100.00;99267.00;5054129;28;20457;-58
2021/12/24 11:18:39;;;;;;;0.30;0.20;;;;;;;9.18;100.00;99260.66;5054219;28;20556;-56
2021/12/24 11:21:23;;;;;;;2.67;1.17;;;;;;;9.35;100.00;99265.31;5054125;28;20455;-58
2021/12/24 11:23:50;;;;;;;0.30;0.20;;;;;;;9.27;100.00;99262.94;5053584;28;20478;-57
2021/12/24 11:26:20;;;;;;;0.30;0.20;;;;;;;9.37;100.00;99266.97;5066627;28;20438;-56
2021/12/24 11:28:47;;;;;;;0.30;0.20;;;;;;;9.28;100.00;99263.81;5052013;28;20854;-56
2021/12/24 11:31:27;;;;;;;0.30;0.20;;;;;;;9.31;100.00;99253.06;5051000;28;20447;-55
2021/12/24 11:33:54;;;;;;;0.30;0.20;;;;;;;9.27;100.00;99254.13;5051806;28;20459;-57
2021/12/24 11:36:24;;;;;;;0.30;0.20;;;;;;;9.22;100.00;99250.81;5051193;28;20504;-57
2021/12/24 11:38:55;;;;;;;0.30;0.20;;;;;;;9.16;100.00;99250.09;5043792;28;20466;-56
2021/12/24 11:41:26;;;;;;;0.30;0.30;;;;;;;9.11;100.00;99249.44;5048667;28;20464;-56
2021/12/24 11:43:55;;;;;;;0.30;0.20;;;;;;;9.02;100.00;99235.66;5050546;28;20500;-56
2021/12/24 11:46:25;;;;;;;0.40;0.37;;;;;;;9.07;100.00;99247.84;5051369;28;20451;-56
2021/12/24 11:48:54;;;;;;;0.30;0.20;;;;;;;9.10;100.00;99247.72;5042697;28;20467;-55
2021/12/24 11:51:33;;;;;;;0.30;0.30;;;;;;;9.13;100.00;99247.59;5051295;28;20455;-57
2021/12/24 11:54:04;;;;;;;0.30;0.20;;;;;;;9.14;100.00;99251.09;5045040;28;21002;-57
2021/12/24 11:56:45;;;;;;;0.40;0.40;;;;;;;9.08;100.00;99249.56;5051092;28;20454;-56
2021/12/24 11:59:12;;;;;;;0.30;0.20;;;;;;;9.15;100.00;99239.56;5054527;28;20784;-56
2021/12/24 12:01:41;;;;;;;0.40;0.40;;;;;;;9.11;100.00;99241.47;5054943;28;20504;-56
2021/12/24 12:04:14;;;;;;;0.30;0.20;;;;;;;9.11;100.00;99230.88;5055038;28;20508;-56
2021/12/24 12:06:40;;;;;;;0.30;0.20;;;;;;;9.13;100.00;99230.81;5054614;28;20512;-56
2021/12/24 12:09:10;;;;;;;4.50;2.60;;;;;;;9.11;100.00;99224.72;5053711;28;20993;-56
2021/12/24 12:11:41;;;;;;;0.60;0.60;;;;;;;9.05;100.00;99212.59;5054918;28;20447;-57
2021/12/24 12:14:10;;;;;;;0.30;0.20;;;;;;;9.04;100.00;99220.56;5054801;28;20465;-56
2021/12/24 12:16:43;;;;;;;0.30;0.20;;;;;;;9.08;100.00;99216.91;5054778;28;20477;-56
2021/12/24 12:19:20;;;;;;;0.83;0.83;;;;;;;9.13;100.00;99210.47;5047065;28;20831;-56
2021/12/24 12:24:59;;;;;;;0.30;0.20;;;;;;;9.11;100.00;99204.38;5054082;28;20451;-58
2021/12/24 12:27:28;;;;;;;0.30;0.20;;;;;;;9.13;100.00;99207.81;5048735;28;20478;-55
2021/12/24 12:29:55;;;;;;;0.30;0.20;;;;;;;9.10;100.00;99199.13;5053983;28;20476;-55
2021/12/24 12:32:21;;;;;;;0.30;0.20;;;;;;;9.13;100.00;99206.97;5055235;28;20848;-55
2021/12/24 12:34:50;;;;;;;0.30;0.20;;;;;;;9.13;100.00;99204.31;5054575;28;20447;-55
2021/12/24 12:37:20;;;;;;;0.30;0.20;;;;;;;9.12;100.00;99205.22;5054264;28;20873;-55
2021/12/24 12:39:55;;;;;;;0.30;0.20;;;;;;;9.13;100.00;99205.16;5054722;28;20538;-55
2021/12/24 12:42:42;;;;;;;0.30;0.20;;;;;;;9.14;100.00;99200.72;5052055;28;20947;-55
2021/12/24 12:45:09;;;;;;;0.30;0.20;;;;;;;9.11;100.00;99196.41;5055163;28;20446;-55
2021/12/24 12:47:52;;;;;;;0.30;0.20;;;;;;;9.15;100.00;99200.66;5061203;28;20527;-55
2021/12/24 12:50:20;;;;;;;0.30;0.20;;;;;;;9.16;100.00;99190.91;5054775;28;20527;-56
2021/12/24 12:52:47;;;;;;;0.30;0.20;;;;;;;9.14;100.00;99187.47;5054706;28;20451;-55
2021/12/24 12:55:30;;;;;;;0.30;0.20;;;;;;;9.15;100.00;99183.91;5054049;28;20952;-55
2021/12/24 12:58:26;;;;;;;0.30;0.20;;;;;;;9.17;100.00;99187.34;5052603;28;20909;-56
2021/12/24 13:01:16;;;;;;;0.30;0.20;;;;;;;9.20;100.00;99184.59;5024915;28;20458;-56
2021/12/24 13:03:55;;;;;;;0.30;0.20;;;;;;;9.26;100.00;99186.97;5052443;28;20516;-56
2021/12/24 13:06:23;;;;;;;0.30;0.20;;;;;;;9.20;100.00;99190.75;5053841;28;20439;-56
2021/12/24 13:08:50;;;;;;;0.30;0.20;;;;;;;9.20;100.00;99197.84;5052292;28;20455;-56
2021/12/24 13:11:20;;;;;;;0.40;0.40;;;;;;;9.34;100.00;99189.31;5054148;28;20487;-56
2021/12/24 13:14:01;;;;;;;0.30;0.20;;;;;;;9.28;100.00;99197.50;5061799;22;20506;-77
2021/12/24 13:16:52;;;;;;;0.30;0.20;;;;;;;9.15;100.00;99168.84;5038288;28;20837;-77
2021/12/24 13:19:57;;;;;;;0.30;0.20;;;;;;;9.22;100.00;99173.91;5041276;28;20712;-76
2021/12/24 13:22:56;;;;;;;0.53;0.53;;;;;;;9.18;100.00;99160.78;5039253;28;20516;-76
2021/12/24 13:25:41;;;;;;;0.30;0.20;;;;;;;9.43;100.00;99173.88;5056258;28;20498;-76
2021/12/24 13:28:08;;;;;;;0.30;0.20;;;;;;;9.36;100.00;99153.84;5009618;28;20448;-77
2021/12/24 13:30:35;;;;;;;0.40;0.40;;;;;;;9.35;100.00;99151.28;5029591;28;20455;-76